Time;durP1;ratioP1;P1;durP2;ratioP2;P2;SDS_P1;SDS_P2;PMS_P1;PMS_P2;Temp;Humidity;BMP_temperature;BMP_pressure;BME280_temperature;BME280_humidity;BME280_pressure;Samples;Min_cycle;Max_cycle;Signal;HPM_P1;HPM_P2
2024/01/25 00:00:16;;;;;;;;;3.33;2.00;;;;;20.70;45.69;103020.44;6366715;22;47345;-76
2024/01/25 00:02:41;;;;;;;;;1.00;1.00;;;;;20.62;45.82;103005.16;6367159;22;45442;-74
2024/01/25 00:05:07;;;;;;;;;1.33;0.33;;;;;20.78;45.79;103031.28;6367823;22;45248;-74
2024/01/25 00:07:32;;;;;;;;;1.67;1.67;;;;;20.77;45.60;103028.75;6367892;22;45218;-75
2024/01/25 00:09:57;;;;;;;;;0.67;0.67;;;;;20.70;46.12;103021.28;6366857;22;61827;-75
2024/01/25 00:12:23;;;;;;;;;1.67;1.00;;;;;20.77;46.00;103032.22;6367562;22;45153;-75
2024/01/25 00:14:48;;;;;;;;;1.33;1.33;;;;;20.71;45.71;103016.84;6366915;22;51549;-75
2024/01/25 00:17:14;;;;;;;;;1.67;1.00;;;;;20.70;46.10;103000.13;6366584;22;45512;-75
2024/01/25 00:19:40;;;;;;;;;1.67;1.33;;;;;20.72;45.87;103003.50;6366546;22;67920;-75
2024/01/25 00:22:06;;;;;;;;;3.33;0.67;;;;;20.74;46.10;102996.28;6366179;22;45229;-74
2024/01/25 00:24:33;;;;;;;;;1.00;1.00;;;;;20.77;45.81;103000.50;6367579;22;45296;-75
2024/01/25 00:26:58;;;;;;;;;1.00;1.00;;;;;20.77;45.67;103008.44;6367546;22;45243;-75
2024/01/25 00:29:24;;;;;;;;;3.00;0.67;;;;;20.78;46.15;103004.81;6366943;22;47231;-75
2024/01/25 00:31:49;;;;;;;;;2.00;1.00;;;;;20.54;45.58;102970.53;6368780;22;45257;-75
2024/01/25 00:34:15;;;;;;;;;3.00;1.33;;;;;20.72;45.51;103002.66;6368587;22;45279;-74
2024/01/25 00:36:40;;;;;;;;;3.00;2.00;;;;;20.77;45.71;103004.94;6368966;22;45343;-75
2024/01/25 00:39:06;;;;;;;;;0.33;0.33;;;;;20.78;45.71;103006.63;6340367;22;46019;-75
2024/01/25 00:41:33;;;;;;;;;0.67;0.67;;;;;20.76;46.12;103001.47;6369074;22;45380;-74
2024/01/25 00:43:58;;;;;;;;;3.00;0.67;;;;;20.54;46.17;102965.22;6368036;22;45316;-75
2024/01/25 00:46:24;;;;;;;;;1.67;1.00;;;;;20.75;45.69;102999.78;6368282;22;45442;-76
2024/01/25 00:48:49;;;;;;;;;0.67;0.67;;;;;20.76;45.69;102990.88;6368899;22;46321;-75
2024/01/25 00:51:20;;;;;;;;;3.33;2.00;;;;;20.72;45.84;102982.34;6368292;22;45249;-74
2024/01/25 00:53:46;;;;;;;;;2.33;1.33;;;;;20.69;46.01;102974.63;6368864;22;45230;-74
2024/01/25 00:56:12;;;;;;;;;2.00;0.67;;;;;20.61;45.89;102959.34;6368442;22;45512;-76
2024/01/25 00:58:37;;;;;;;;;6.00;2.33;;;;;20.72;45.88;102982.34;6368334;22;46866;-76
2024/01/25 01:01:03;;;;;;;;;0.00;0.00;;;;;20.69;45.93;102977.28;6368873;22;45246;-75
2024/01/25 01:03:29;;;;;;;;;0.67;0.67;;;;;20.72;45.80;102984.97;6368627;22;45216;-75
2024/01/25 01:05:54;;;;;;;;;6.67;1.67;;;;;20.73;45.98;102993.75;6368754;22;45205;-74
2024/01/25 01:08:20;;;;;;;;;0.33;0.33;;;;;20.68;45.79;102987.97;6368753;22;46189;-74
2024/01/25 01:10:46;;;;;;;;;2.33;2.00;;;;;20.72;45.74;102987.63;6367875;22;45237;-74
2024/01/25 01:13:11;;;;;;;;;3.00;1.67;;;;;20.66;45.97;102987.28;6368444;22;45353;-76
2024/01/25 01:15:37;;;;;;;;;2.00;2.00;;;;;20.68;45.80;102988.84;6368411;22;45450;-75
2024/01/25 01:18:02;;;;;;;;;2.67;1.00;;;;;20.71;45.61;102985.09;6368331;22;53155;-75
2024/01/25 01:20:27;;;;;;;;;5.00;1.00;;;;;20.71;45.83;102982.47;6368774;22;45356;-75
2024/01/25 01:22:54;;;;;;;;;2.33;2.00;;;;;20.69;45.61;102979.06;6368857;22;45394;-76
2024/01/25 01:25:19;;;;;;;;;3.00;2.00;;;;;20.70;45.96;102978.97;6367674;22;45482;-76
2024/01/25 01:27:44;;;;;;;;;3.67;2.00;;;;;20.72;45.51;102981.47;6367837;22;47139;-75
2024/01/25 01:30:10;;;;;;;;;2.67;2.00;;;;;20.71;45.60;102977.16;6368259;22;45307;-75
2024/01/25 01:32:35;;;;;;;;;1.00;1.00;;;;;20.58;46.03;102958.75;6368301;22;45264;-76
2024/01/25 01:35:01;;;;;;;;;1.33;1.33;;;;;20.42;45.96;102932.66;6368330;22;45236;-75
2024/01/25 01:37:26;;;;;;;;;1.00;1.00;;;;;20.71;45.69;102979.81;6368316;22;53205;-75
2024/01/25 01:39:52;;;;;;;;;2.67;2.00;;;;;20.71;46.15;102971.88;6367971;22;45237;-76
2024/01/25 01:42:18;;;;;;;;;3.00;1.33;;;;;20.68;45.53;102965.03;6368370;22;45291;-75
2024/01/25 01:44:43;;;;;;;;;2.00;2.00;;;;;20.71;45.91;102963.94;6368512;22;45193;-75
2024/01/25 01:47:08;;;;;;;;;1.00;0.67;;;;;20.68;45.50;102958.88;6368495;22;45248;-75
2024/01/25 01:49:34;;;;;;;;;2.67;1.33;;;;;20.54;45.42;102939.63;6368649;22;45256;-75
2024/01/25 01:52:00;;;;;;;;;2.33;2.33;;;;;20.62;45.49;102957.56;6368383;22;45371;-75
2024/01/25 01:54:25;;;;;;;;;2.00;2.00;;;;;20.67;45.88;102962.47;6367885;22;45362;-76
2024/01/25 01:56:52;;;;;;;;;1.33;1.33;;;;;20.72;45.82;102976.19;6368490;22;45267;-75
2024/01/25 01:59:17;;;;;;;;;1.67;1.33;;;;;20.70;45.62;102973.69;6368426;22;45388;-76
2024/01/25 02:01:42;;;;;;;;;2.33;1.00;;;;;20.66;45.64;102958.16;6368644;22;45265;-76
2024/01/25 02:04:08;;;;;;;;;2.67;1.67;;;;;20.57;45.74;102949.13;6368494;22;45316;-76
2024/01/25 02:06:34;;;;;;;;;0.67;0.67;;;;;20.71;45.65;102979.81;6368215;22;46204;-76
2024/01/25 02:08:59;;;;;;;;;3.00;0.67;;;;;20.69;45.39;102977.28;6368015;22;45494;-75
2024/01/25 02:11:26;;;;;;;;;4.33;1.33;;;;;20.69;45.62;102966.69;6368553;22;45217;-76
2024/01/25 02:13:51;;;;;;;;;3.67;1.67;;;;;20.71;45.59;102970.06;6368503;22;45437;-76
2024/01/25 02:16:19;;;;;;;;;2.00;2.00;;;;;20.71;45.69;102970.06;6368070;22;46010;-76
2024/01/25 02:18:46;;;;;;;;;1.67;1.67;;;;;20.71;45.44;102970.06;6367992;22;45267;-74
2024/01/25 02:21:12;;;;;;;;;2.33;1.33;;;;;20.71;45.76;102967.41;6368163;22;45216;-76
2024/01/25 02:23:37;;;;;;;;;3.00;1.33;;;;;20.68;45.88;102958.88;6367366;22;45315;-75
2024/01/25 02:26:02;;;;;;;;;2.33;2.33;;;;;20.59;45.91;102950.69;6367796;22;46165;-75
2024/01/25 02:28:28;;;;;;;;;0.67;0.67;;;;;20.68;45.67;102953.59;6367667;22;45319;-75
2024/01/25 02:30:53;;;;;;;;;2.67;2.67;;;;;20.67;45.56;102952.75;6368636;22;45260;-76
2024/01/25 02:33:18;;;;;;;;;4.00;1.67;;;;;20.70;45.49;102956.97;6367914;22;45434;-75
2024/01/25 02:35:44;;;;;;;;;1.00;1.00;;;;;20.71;45.38;102958.66;6367759;22;46235;-76
2024/01/25 02:38:09;;;;;;;;;3.00;1.33;;;;;20.70;45.78;102956.97;6367880;22;45357;-75
2024/01/25 02:40:35;;;;;;;;;4.00;2.33;;;;;20.59;45.65;102936.63;6368077;22;45264;-75
2024/01/25 02:43:00;;;;;;;;;1.33;1.00;;;;;20.60;45.40;102933.03;6339817;22;45214;-75
2024/01/25 02:45:25;;;;;;;;;2.00;1.00;;;;;20.69;45.46;102950.81;6368149;22;46059;-76
2024/01/25 02:47:51;;;;;;;;;3.00;3.00;;;;;20.34;45.71;102888.31;6368186;22;45236;-75
2024/01/25 02:50:16;;;;;;;;;2.00;2.00;;;;;20.56;45.64;102918.34;6368011;22;45370;-76
2024/01/25 02:52:41;;;;;;;;;1.67;1.67;;;;;20.70;45.48;102936.66;6367727;22;45343;-76
2024/01/25 02:55:07;;;;;;;;;0.67;0.67;;;;;20.71;45.39;102943.59;6368184;22;45950;-75
2024/01/25 02:57:33;;;;;;;;;2.33;2.33;;;;;20.71;45.40;102934.84;6368213;22;45263;-76
2024/01/25 02:59:58;;;;;;;;;4.00;2.00;;;;;20.70;45.26;102936.66;6367926;22;45347;-76
2024/01/25 03:02:24;;;;;;;;;4.00;1.33;;;;;20.68;45.59;102935.09;6367797;22;45198;-76
2024/01/25 03:04:49;;;;;;;;;4.67;1.33;;;;;20.70;45.52;102941.94;6368065;22;45235;-76
2024/01/25 03:07:14;;;;;;;;;1.67;1.67;;;;;20.68;45.73;102940.38;6367084;22;53511;-76
2024/01/25 03:09:40;;;;;;;;;3.00;1.00;;;;;20.67;45.98;102936.88;6368337;22;45273;-77
2024/01/25 03:12:05;;;;;;;;;1.67;1.67;;;;;20.61;45.50;102938.19;6368396;22;45436;-72
2024/01/25 03:14:31;;;;;;;;;4.00;3.00;;;;;20.72;45.58;102942.66;6367494;22;46114;-75
2024/01/25 03:16:56;;;;;;;;;1.33;1.33;;;;;20.71;45.67;102946.25;6368153;22;45217;-75
2024/01/25 03:19:26;;;;;;;;;2.33;0.67;;;;;20.66;45.33;102932.53;6368223;22;45294;-76
2024/01/25 03:21:52;;;;;;;;;3.33;1.00;;;;;20.62;45.83;102916.09;6367642;22;45381;-75
2024/01/25 03:24:17;;;;;;;;;2.33;1.00;;;;;20.72;45.42;102923.28;6367964;22;45229;-76
2024/01/25 03:26:43;;;;;;;;;4.00;2.00;;;;;20.72;45.45;102920.63;6338902;22;45234;-76
2024/01/25 03:29:08;;;;;;;;;1.33;1.33;;;;;20.57;45.47;102891.81;6368003;22;45242;-75
2024/01/25 03:31:34;;;;;;;;;2.33;0.67;;;;;20.66;45.36;102910.56;6368271;22;45174;-76
2024/01/25 03:33:59;;;;;;;;;1.67;1.67;;;;;20.71;45.22;102911.84;6367450;22;46181;-75
2024/01/25 03:36:25;;;;;;;;;3.33;0.00;;;;;20.60;45.44;102890.72;6367054;22;51565;-75
2024/01/25 03:38:50;;;;;;;;;1.67;1.67;;;;;20.69;45.28;102899.72;6367559;22;54825;-74
2024/01/25 03:41:15;;;;;;;;;4.00;2.00;;;;;20.57;45.50;102881.22;6367449;22;45353;-75
2024/01/25 03:43:40;;;;;;;;;1.33;1.33;;;;;20.57;45.49;102875.94;6366930;22;56084;-75
2024/01/25 03:46:06;;;;;;;;;0.67;0.67;;;;;20.66;45.75;102890.22;6367397;22;45232;-75
2024/01/25 03:48:31;;;;;;;;;2.00;2.00;;;;;20.53;45.71;102865.72;6367151;22;48800;-75
2024/01/25 03:50:57;;;;;;;;;2.67;2.00;;;;;20.59;45.64;102873.16;6367623;22;45205;-75
2024/01/25 03:53:23;;;;;;;;;1.67;0.67;;;;;20.68;45.39;102888.31;6367137;22;45336;-75
2024/01/25 03:55:49;;;;;;;;;1.67;1.00;;;;;20.70;45.41;102896.97;6367386;22;45492;-75
2024/01/25 03:58:15;;;;;;;;;3.00;2.00;;;;;20.71;45.55;102892.53;6367435;22;45295;-74
2024/01/25 04:00:40;;;;;;;;;3.00;2.00;;;;;20.70;45.45;102890.81;6367767;22;45438;-76
2024/01/25 04:03:05;;;;;;;;;1.67;1.67;;;;;20.66;45.17;102884.13;6367489;22;47986;-76
2024/01/25 04:05:31;;;;;;;;;0.67;0.67;;;;;20.67;45.67;102885.78;6367157;22;58175;-75
2024/01/25 04:07:56;;;;;;;;;1.33;1.33;;;;;20.70;45.60;102881.09;6368586;22;45165;-76
2024/01/25 04:10:22;;;;;;;;;0.33;0.00;;;;;20.56;45.67;102863.66;6369159;22;45268;-75
2024/01/25 04:12:47;;;;;;;;;3.33;0.67;;;;;20.59;45.70;102855.50;6368448;22;45902;-75
2024/01/25 04:15:12;;;;;;;;;1.67;1.67;;;;;20.70;45.38;102869.66;6369083;22;45150;-76
2024/01/25 04:17:38;;;;;;;;;1.67;1.67;;;;;20.60;45.37;102856.34;6369179;22;45697;-74
2024/01/25 04:20:03;;;;;;;;;1.33;1.00;;;;;20.67;45.26;102865.47;6368121;22;45263;-76
2024/01/25 04:22:28;;;;;;;;;2.00;1.00;;;;;20.58;45.05;102845.84;6368764;22;46262;-76
2024/01/25 04:24:54;;;;;;;;;2.00;2.00;;;;;20.31;45.45;102810.06;6340153;22;45240;-73
2024/01/25 04:27:19;;;;;;;;;0.67;0.67;;;;;20.71;45.17;102871.38;6368482;22;45328;-76
2024/01/25 04:29:44;;;;;;;;;4.00;1.00;;;;;20.70;45.13;102865.22;6368657;22;49340;-75
2024/01/25 04:32:10;;;;;;;;;3.33;2.33;;;;;20.69;45.30;102870.63;6368676;22;46518;-76
2024/01/25 04:34:35;;;;;;;;;1.67;1.67;;;;;20.67;45.36;102859.31;6368324;22;45294;-76
2024/01/25 04:37:01;;;;;;;;;2.00;0.00;;;;;20.71;45.28;102868.72;6369315;22;45246;-76
2024/01/25 04:39:26;;;;;;;;;0.67;0.67;;;;;20.71;45.57;102884.59;6368519;22;45488;-76
2024/01/25 04:41:52;;;;;;;;;1.67;1.33;;;;;20.71;45.22;102871.38;6368220;22;46369;-75
2024/01/25 04:44:18;;;;;;;;;5.33;1.67;;;;;20.34;45.57;102798.41;6368289;22;45362;-76
2024/01/25 04:46:43;;;;;;;;;2.00;1.00;;;;;20.51;45.34;102828.81;6368396;22;45279;-76
2024/01/25 04:49:09;;;;;;;;;1.00;1.00;;;;;20.70;45.20;102862.56;6368157;22;45371;-75
2024/01/25 04:51:34;;;;;;;;;3.00;1.67;;;;;20.69;45.40;102860.88;6368169;22;47104;-76
2024/01/25 04:54:00;;;;;;;;;1.33;1.33;;;;;20.71;45.56;102861.59;6368515;22;45285;-76
2024/01/25 04:56:25;;;;;;;;;2.67;2.00;;;;;20.63;45.18;102848.97;6368290;22;45257;-76
2024/01/25 04:58:51;;;;;;;;;1.00;1.00;;;;;20.65;45.03;102840.09;6369081;22;45309;-76
2024/01/25 05:01:16;;;;;;;;;2.00;1.00;;;;;20.63;45.29;102840.22;6368072;22;47059;-75
2024/01/25 05:03:41;;;;;;;;;0.33;0.33;;;;;20.71;45.62;102844.91;6339251;22;57503;-75
2024/01/25 05:06:07;;;;;;;;;2.33;1.67;;;;;20.70;45.52;102849.34;6368846;22;45200;-76
2024/01/25 05:08:32;;;;;;;;;1.67;1.33;;;;;20.67;45.46;102846.09;6368957;22;45440;-75
2024/01/25 05:10:58;;;;;;;;;2.33;2.00;;;;;20.70;45.49;102856.44;6368652;22;46065;-75
2024/01/25 05:13:23;;;;;;;;;0.67;0.67;;;;;20.56;45.37;102837.22;6368638;22;45252;-75
2024/01/25 05:15:48;;;;;;;;;1.00;1.00;;;;;20.70;45.16;102865.22;6367731;22;52328;-75
2024/01/25 05:18:14;;;;;;;;;3.33;2.33;;;;;20.70;45.49;102861.72;6368036;22;45350;-76
2024/01/25 05:20:39;;;;;;;;;1.00;1.00;;;;;20.63;45.15;102848.16;6368131;22;54858;-76
2024/01/25 05:23:05;;;;;;;;;4.00;1.00;;;;;20.70;45.09;102851.16;6368191;22;45210;-76
2024/01/25 05:25:30;;;;;;;;;2.00;2.00;;;;;20.62;45.42;102841.19;6368301;22;45214;-75
2024/01/25 05:27:56;;;;;;;;;1.67;1.00;;;;;20.68;45.68;102847.78;6368623;22;45271;-75
2024/01/25 05:30:22;;;;;;;;;4.00;2.00;;;;;20.71;45.32;102852.84;6368274;22;45252;-77
2024/01/25 05:32:49;;;;;;;;;3.33;1.67;;;;;20.69;45.20;102855.59;6367692;22;45271;-75
2024/01/25 05:35:14;;;;;;;;;3.00;1.00;;;;;20.61;45.51;102842.97;6368223;22;45306;-75
2024/01/25 05:37:40;;;;;;;;;1.33;1.33;;;;;20.44;45.32;102815.25;6368040;22;45296;-76
2024/01/25 05:40:06;;;;;;;;;3.00;1.67;;;;;20.70;45.09;102856.44;6368375;22;46080;-76
2024/01/25 05:42:32;;;;;;;;;3.33;2.00;;;;;20.66;45.36;102847.91;6367992;22;45499;-74
2024/01/25 05:44:57;;;;;;;;;0.67;0.67;;;;;20.69;45.32;102866.19;6368242;22;45246;-76
2024/01/25 05:47:22;;;;;;;;;0.67;0.67;;;;;20.61;45.42;102839.50;6368250;22;45158;-76
2024/01/25 05:49:48;;;;;;;;;3.67;1.67;;;;;20.67;45.59;102856.69;6367953;22;46086;-76
2024/01/25 05:52:14;;;;;;;;;1.00;1.00;;;;;20.68;45.27;102853.94;6339878;22;45738;-76
2024/01/25 05:54:39;;;;;;;;;2.67;2.00;;;;;20.72;45.37;102862.44;6368236;22;45268;-76
2024/01/25 05:57:04;;;;;;;;;2.00;1.00;;;;;20.53;45.63;102834.00;6368658;22;45466;-76
2024/01/25 05:59:30;;;;;;;;;2.67;2.00;;;;;20.68;45.26;102853.09;6368454;22;45319;-76
2024/01/25 06:01:55;;;;;;;;;3.67;1.67;;;;;20.71;45.25;102861.59;6367861;22;45298;-74
2024/01/25 06:04:21;;;;;;;;;1.00;0.67;;;;;20.56;45.34;102834.56;6368177;22;45194;-76
2024/01/25 06:06:46;;;;;;;;;2.00;2.00;;;;;20.71;45.04;102864.25;6368357;22;45208;-76
2024/01/25 06:09:11;;;;;;;;;0.67;0.67;;;;;20.71;44.88;102853.66;6367957;22;46921;-75
2024/01/25 06:11:37;;;;;;;;;1.00;1.00;;;;;20.66;44.97;102832.03;6368525;22;45296;-76
2024/01/25 06:14:05;;;;;;;;;1.00;1.00;;;;;20.70;45.15;102848.50;6368522;22;45424;-75
2024/01/25 06:16:30;;;;;;;;;1.33;0.67;;;;;20.72;45.66;102849.22;6368001;22;45460;-74
2024/01/25 06:18:56;;;;;;;;;3.67;1.67;;;;;20.65;45.29;102846.22;6367826;22;47197;-76
2024/01/25 06:21:21;;;;;;;;;0.00;0.00;;;;;20.68;45.40;102851.28;6367838;22;45261;-75
2024/01/25 06:23:46;;;;;;;;;2.00;1.00;;;;;20.72;45.42;102862.44;6368489;22;45300;-76
2024/01/25 06:26:12;;;;;;;;;2.00;2.00;;;;;20.71;45.40;102853.66;6367667;22;49065;-76
2024/01/25 06:28:37;;;;;;;;;4.33;1.67;;;;;20.64;45.28;102839.25;6367527;22;45295;-75
2024/01/25 06:31:03;;;;;;;;;2.00;0.00;;;;;20.71;45.00;102851.00;6367512;22;45224;-72
2024/01/25 06:33:28;;;;;;;;;1.67;1.00;;;;;20.71;45.14;102836.97;6368010;22;45142;-76
2024/01/25 06:35:54;;;;;;;;;0.67;0.33;;;;;20.63;45.51;102824.34;6368371;22;45456;-75
2024/01/25 06:38:19;;;;;;;;;2.00;2.00;;;;;20.61;45.20;102824.47;6367720;22;47039;-75
2024/01/25 06:40:45;;;;;;;;;0.67;0.67;;;;;20.71;45.14;102836.97;6367369;22;45181;-75
2024/01/25 06:43:11;;;;;;;;;0.33;0.33;;;;;20.53;45.29;102807.53;6367983;22;45147;-76
2024/01/25 06:45:37;;;;;;;;;2.00;0.67;;;;;20.60;45.14;102825.44;6367558;22;45385;-76
2024/01/25 06:48:02;;;;;;;;;1.00;1.00;;;;;20.71;45.00;102844.91;6367616;22;45271;-75
2024/01/25 06:50:27;;;;;;;;;1.00;1.00;;;;;20.70;45.39;102840.56;6367815;22;45303;-75
2024/01/25 06:52:54;;;;;;;;;1.67;1.67;;;;;20.70;45.30;102840.56;6367897;22;51828;-76
2024/01/25 06:55:20;;;;;;;;;2.00;2.00;;;;;20.32;44.99;102774.75;6367624;22;45389;-79
2024/01/25 06:57:45;;;;;;;;;1.00;1.00;;;;;20.70;45.03;102840.56;6367934;22;45336;-79
2024/01/25 07:00:12;;;;;;;;;1.33;1.00;;;;;20.45;45.52;102803.72;6366786;22;68375;-76
2024/01/25 07:02:38;;;;;;;;;2.00;1.00;;;;;20.51;45.66;102816.44;6367214;22;45181;-87
2024/01/25 07:05:04;;;;;;;;;0.67;0.67;;;;;20.55;45.77;102819.69;6367882;22;45418;-80
2024/01/25 07:07:32;;;;;;;;;4.00;1.00;;;;;20.65;45.60;102834.81;6367368;22;46058;-79
2024/01/25 07:09:57;;;;;;;;;1.00;1.00;;;;;20.70;45.70;102836.13;6368431;22;45292;-80
2024/01/25 07:12:23;;;;;;;;;0.67;0.67;;;;;20.73;46.04;102838.53;6367575;22;45316;-80
2024/01/25 07:14:48;;;;;;;;;0.67;0.67;;;;;20.76;45.77;102837.44;6366994;22;45217;-76
2024/01/25 07:17:13;;;;;;;;;1.67;1.67;;;;;20.60;45.91;102814.03;6339117;22;46106;-81
2024/01/25 07:19:39;;;;;;;;;2.67;2.67;;;;;20.77;45.63;102843.56;6367491;22;45264;-79
2024/01/25 07:22:04;;;;;;;;;5.67;3.00;;;;;20.51;45.22;102816.44;6367560;22;45331;-80
2024/01/25 07:24:30;;;;;;;;;4.00;4.00;;;;;20.66;44.91;102852.38;6368413;22;45407;-82
2024/01/25 07:26:56;;;;;;;;;4.33;3.33;;;;;20.59;45.05;102854.63;6367813;22;45935;-77
2024/01/25 07:29:21;;;;;;;;;4.00;3.00;;;;;20.57;44.70;102868.00;6366542;22;45840;-75
2024/01/25 07:31:46;;;;;;;;;2.67;2.67;;;;;20.20;44.92;102802.13;6368291;22;45324;-75
2024/01/25 07:34:12;;;;;;;;;3.00;3.00;;;;;20.51;45.15;102850.81;6367990;22;45224;-76
2024/01/25 07:36:37;;;;;;;;;2.00;2.00;;;;;20.55;45.13;102847.94;6367726;22;46001;-76
2024/01/25 07:39:03;;;;;;;;;3.00;3.00;;;;;20.59;45.20;102844.06;6367305;22;45258;-75
2024/01/25 07:41:28;;;;;;;;;4.00;3.00;;;;;20.59;45.53;102844.91;6367569;22;45317;-76
2024/01/25 07:43:55;;;;;;;;;1.00;1.00;;;;;20.45;45.64;102819.56;6367515;22;45360;-75
2024/01/25 07:46:21;;;;;;;;;5.33;4.00;;;;;20.60;45.70;102854.53;6367767;22;45279;-75
2024/01/25 07:48:47;;;;;;;;;3.00;1.00;;;;;20.48;45.65;102823.78;6367658;22;45240;-75
2024/01/25 07:51:13;;;;;;;;;1.67;1.67;;;;;20.59;45.28;102836.97;6367644;22;45515;-76
2024/01/25 07:53:39;;;;;;;;;2.00;1.67;;;;;20.61;45.33;102840.34;6367876;22;45285;-76
2024/01/25 07:56:07;;;;;;;;;2.67;2.67;;;;;20.63;45.53;102834.94;6367253;22;46302;-76
2024/01/25 07:58:33;;;;;;;;;1.00;0.67;;;;;20.63;45.27;102840.22;6366833;22;45316;-75
2024/01/25 08:00:58;;;;;;;;;3.33;3.00;;;;;20.63;45.29;102840.22;6367792;22;45284;-76
2024/01/25 08:03:23;;;;;;;;;2.00;2.00;;;;;20.46;45.01;102813.31;6367495;22;45446;-75
2024/01/25 08:05:48;;;;;;;;;1.33;1.33;;;;;20.65;45.56;102834.81;6367050;22;58000;-75
2024/01/25 08:08:14;;;;;;;;;1.00;1.00;;;;;20.53;45.36;102813.69;6367185;22;45238;-76
2024/01/25 08:10:39;;;;;;;;;1.00;1.00;;;;;20.50;45.24;102809.47;6367645;22;45790;-76
2024/01/25 08:13:04;;;;;;;;;1.00;1.00;;;;;20.51;45.34;102807.66;6366855;22;45393;-77
2024/01/25 08:15:30;;;;;;;;;3.00;2.00;;;;;20.37;45.25;102787.59;6367080;22;53592;-77
2024/01/25 08:17:55;;;;;;;;;2.67;1.67;;;;;20.51;45.54;102805.00;6366689;22;52505;-76
2024/01/25 08:20:20;;;;;;;;;2.67;1.67;;;;;20.51;45.57;102808.50;6367150;22;48586;-76
2024/01/25 08:22:46;;;;;;;;;0.67;0.67;;;;;20.67;45.51;102843.44;6367054;22;45209;-76
2024/01/25 08:25:13;;;;;;;;;2.00;2.00;;;;;20.47;45.70;102809.72;6367239;22;45352;-76
2024/01/25 08:27:39;;;;;;;;;2.00;2.00;;;;;20.67;45.73;102833.72;6366903;22;45576;-76
2024/01/25 08:30:05;;;;;;;;;2.33;1.33;;;;;20.63;45.62;102830.47;6367337;22;45220;-76
2024/01/25 08:32:30;;;;;;;;;4.67;1.00;;;;;20.68;45.47;102835.41;6366840;22;45488;-76
2024/01/25 08:34:56;;;;;;;;;0.67;0.67;;;;;20.63;45.37;102827.00;6366627;22;45284;-75
2024/01/25 08:37:21;;;;;;;;;1.00;1.00;;;;;20.68;45.44;102842.50;6366774;22;45248;-76
2024/01/25 08:39:49;;;;;;;;;2.00;1.00;;;;;20.58;45.52;102827.34;6367584;22;45270;-76
2024/01/25 08:42:16;;;;;;;;;1.00;1.00;;;;;20.44;45.24;102796.72;6366542;22;45252;-76
2024/01/25 08:44:48;;;;;;;;;1.00;1.00;;;;;20.63;45.53;102827.81;6366548;22;46371;-76
2024/01/25 08:47:14;;;;;;;;;0.33;0.33;;;;;20.62;45.25;102818.22;6366441;22;45281;-75
2024/01/25 08:49:39;;;;;;;;;2.67;2.00;;;;;20.66;45.23;102823.28;6367405;22;45217;-75
2024/01/25 08:52:05;;;;;;;;;4.67;2.00;;;;;20.55;45.52;102805.59;6368130;22;57268;-76
2024/01/25 08:54:30;;;;;;;;;2.67;1.00;;;;;20.70;45.58;102835.28;6367978;22;46900;-76
2024/01/25 08:56:56;;;;;;;;;2.00;0.33;;;;;20.56;45.51;102799.34;6367750;22;45295;-76
2024/01/25 08:59:21;;;;;;;;;1.00;1.00;;;;;20.59;45.32;102802.59;6368940;22;45367;-75
2024/01/25 09:01:47;;;;;;;;;0.67;0.67;;;;;20.64;45.38;102812.81;6368228;22;45283;-76
2024/01/25 09:04:13;;;;;;;;;4.67;1.67;;;;;20.40;45.74;102760.94;6368000;22;47019;-76
2024/01/25 09:06:38;;;;;;;;;1.67;1.67;;;;;20.71;45.64;102811.34;6368078;22;45313;-76
2024/01/25 09:09:05;;;;;;;;;2.00;1.67;;;;;20.57;45.17;102785.16;6368364;22;45291;-76
2024/01/25 09:11:30;;;;;;;;;1.67;1.67;;;;;20.65;45.61;102797.78;6368102;22;45497;-76
2024/01/25 09:13:55;;;;;;;;;0.67;0.67;;;;;20.68;45.66;102786.97;6368423;22;46068;-76
2024/01/25 09:16:22;;;;;;;;;2.67;1.00;;;;;20.59;45.26;102740.91;6368780;22;45306;-75
2024/01/25 09:18:47;;;;;;;;;0.67;0.67;;;;;20.73;45.28;102750.38;6368434;22;45295;-76
2024/01/25 09:21:13;;;;;;;;;2.33;1.33;;;;;20.59;45.30;102717.13;6368606;22;45182;-75
2024/01/25 09:23:39;;;;;;;;;1.00;1.00;;;;;20.69;45.63;102725.97;6367987;22;49113;-76
2024/01/25 09:26:05;;;;;;;;;4.33;1.00;;;;;20.56;45.67;102723.50;6367832;22;45231;-75
2024/01/25 09:28:30;;;;;;;;;2.00;1.67;;;;;20.62;45.44;102740.69;6368169;22;45240;-76
2024/01/25 09:30:55;;;;;;;;;4.00;2.00;;;;;20.72;45.40;102756.63;6368597;22;45344;-76
2024/01/25 09:33:21;;;;;;;;;1.33;1.33;;;;;20.71;45.61;102760.25;6368281;22;45185;-75
2024/01/25 09:35:47;;;;;;;;;1.00;1.00;;;;;20.62;45.66;102740.69;6368381;22;45170;-76
2024/01/25 09:38:12;;;;;;;;;1.00;1.00;;;;;20.73;45.57;102759.19;6368283;22;45328;-76
2024/01/25 09:40:38;;;;;;;;;1.67;1.67;;;;;20.66;45.34;102746.56;6368037;22;45252;-76
2024/01/25 09:43:03;;;;;;;;;1.00;1.00;;;;;20.70;45.34;102756.78;6368409;22;46207;-75
2024/01/25 09:45:31;;;;;;;;;1.00;1.00;;;;;20.75;45.63;102769.63;6339925;22;45272;-75
2024/01/25 09:47:56;;;;;;;;;5.00;1.67;;;;;20.58;45.27;102757.78;6368406;22;45249;-76
2024/01/25 09:50:21;;;;;;;;;2.00;1.67;;;;;20.75;45.57;102785.50;6368123;22;45275;-76
2024/01/25 09:52:55;;;;;;;;;1.67;1.67;;;;;20.76;45.89;102794.28;6367737;22;45308;-75
2024/01/25 09:55:24;;;;;;;;;2.00;2.00;;;;;20.72;45.83;102797.16;6367883;22;45279;-76
2024/01/25 09:57:53;;;;;;;;;0.67;0.67;;;;;20.77;45.76;102788.84;6368523;22;45381;-76
2024/01/25 10:00:20;;;;;;;;;2.67;1.33;;;;;20.77;45.25;102799.44;6368072;22;45438;-76
2024/01/25 10:02:47;;;;;;;;;2.00;2.00;;;;;20.77;45.33;102799.44;6367219;22;47211;-76
2024/01/25 10:05:13;;;;;;;;;2.00;2.00;;;;;20.78;45.52;102797.63;6367914;22;45285;-76
2024/01/25 10:07:43;;;;;;;;;1.33;1.33;;;;;20.76;45.60;102794.28;6367966;22;45218;-76
2024/01/25 10:10:10;;;;;;;;;1.67;1.67;;;;;20.65;45.49;102782.75;6368680;22;45431;-76
2024/01/25 10:12:43;;;;;;;;;4.33;3.00;;;;;20.80;45.46;102808.94;6368080;22;45296;-77
2024/01/25 10:15:09;;;;;;;;;2.67;2.67;;;;;20.71;45.53;102795.47;6367678;22;45299;-76
2024/01/25 10:17:35;;;;;;;;;2.00;1.67;;;;;20.81;45.56;102810.63;6368049;22;45318;-76
2024/01/25 10:20:00;;;;;;;;;3.00;0.67;;;;;20.73;45.54;102792.72;6367879;22;45296;-76
2024/01/25 10:22:26;;;;;;;;;2.00;2.00;;;;;20.77;45.31;102802.06;6367232;22;46079;-76
2024/01/25 10:24:53;;;;;;;;;1.67;1.67;;;;;20.78;45.80;102797.63;6367911;22;45594;-76
2024/01/25 10:27:19;;;;;;;;;1.67;1.67;;;;;20.77;45.76;102796.78;6367886;22;45322;-76
2024/01/25 10:29:44;;;;;;;;;2.00;2.00;;;;;20.76;45.77;102796.91;6367975;22;45490;-77
2024/01/25 10:32:10;;;;;;;;;3.00;2.67;;;;;20.79;45.34;102804.63;6367599;22;49517;-76
2024/01/25 10:34:36;;;;;;;;;1.00;1.00;;;;;20.82;45.42;102807.00;6367841;22;45289;-76
2024/01/25 10:37:07;;;;;;;;;5.00;2.00;;;;;20.78;45.38;102801.13;6368071;22;45442;-76
2024/01/25 10:39:32;;;;;;;;;3.00;2.33;;;;;20.55;45.66;102765.94;6367780;22;45239;-76
2024/01/25 10:41:58;;;;;;;;;3.00;3.00;;;;;20.72;45.80;102780.44;6367579;22;46034;-76
2024/01/25 10:44:24;;;;;;;;;4.67;2.00;;;;;20.85;45.38;102809.38;6368086;22;45344;-77
2024/01/25 10:46:49;;;;;;;;;2.00;1.00;;;;;20.52;45.69;102759.09;6368209;22;45343;-75
2024/01/25 10:49:16;;;;;;;;;2.67;1.33;;;;;20.83;45.74;102813.97;6367897;22;45226;-78
2024/01/25 10:51:41;;;;;;;;;2.00;2.00;;;;;20.81;45.81;102806.16;6367342;22;46427;-76
2024/01/25 10:54:12;;;;;;;;;1.67;1.67;;;;;20.83;45.51;102804.22;6368061;22;45244;-75
2024/01/25 10:56:46;;;;;;;;;3.33;2.67;;;;;20.75;45.70;102790.78;6367908;22;45300;-76
2024/01/25 10:59:11;;;;;;;;;2.00;2.00;;;;;20.84;45.78;102805.91;6368168;22;45321;-75
2024/01/25 11:01:37;;;;;;;;;1.33;1.33;;;;;20.77;45.76;102794.13;6367980;22;46026;-76
2024/01/25 11:04:03;;;;;;;;;1.00;1.00;;;;;20.86;45.36;102805.78;6367674;22;45296;-76
2024/01/25 11:06:28;;;;;;;;;2.33;2.33;;;;;20.77;45.53;102790.66;6367397;22;45303;-76
2024/01/25 11:09:07;;;;;;;;;4.67;2.00;;;;;20.85;45.46;102801.44;6368145;22;45395;-76
2024/01/25 11:11:32;;;;;;;;;1.00;1.00;;;;;20.77;45.89;102777.41;6367591;22;47106;-76
2024/01/25 11:13:59;;;;;;;;;4.00;2.67;;;;;20.75;45.49;102766.97;6368026;22;45552;-75
2024/01/25 11:16:29;;;;;;;;;2.00;1.33;;;;;20.77;45.58;102764.19;6367839;22;45282;-75